Address 0xbc4a346abcea636275a82efcca58052a3bdcd812 4

Txn Hash Method
Block
From
To
Value [Txn Fee]
0xf87ce24ad1f2e7db069bb311b4349b37f9b5440f8e0b116c3d8c9b2f127407ec0x60806040265145282022-05-29 13:46:52190 days 8 hrs ago0xbc4a346abcea636275a82efcca58052a3bdcd812OUT Contract Creation0 MATIC0.001077877503 2.500000009
0xc436e7aa52409cbb857dcb2201bcdb95682b54d4fd33ac65b938a053b4bbbc1f0x60806040265039262022-05-28 18:17:51191 days 3 hrs ago0xbc4a346abcea636275a82efcca58052a3bdcd812OUT Contract Creation0 MATIC0.006940615027 2.50000001
0xcc0e74879bef9ea0c2b1c4d6527b759b640acd3b39a447d2c4f80f00d0aa8b160x60806040265016462022-05-28 14:13:56191 days 7 hrs ago0xbc4a346abcea636275a82efcca58052a3bdcd812OUT Contract Creation0 MATIC0.001027080003 2.500000009
0x9bbc859856ebc3d3b1a5226a6e00487d9c6748a91bc8762b8947bb60c8e5c04fTransfer265016092022-05-28 14:10:50191 days 8 hrs ago0xbc4a346abcea636275a82efcca58052a3bdcd812OUT 0xbcac60ad19af0647814df800c81eb5321ec9c10b0 MATIC0.0000773375 2.500000009
0xbb06a078df20a4b731eb2a55fc9ac9426f265363b031ba7365aa843bcae82e8a0x60806040265015692022-05-28 14:07:30191 days 8 hrs ago0xbc4a346abcea636275a82efcca58052a3bdcd812OUT Contract Creation0 MATIC0.001027080006 2.500000016
0x57b6ec92f2b1571df214d8c79e92c95e09b793cbe5ee6a9c4706b8297c5b55150x60806040265015602022-05-28 14:06:09191 days 8 hrs ago0xbc4a346abcea636275a82efcca58052a3bdcd812OUT Contract Creation0 MATIC0.000806560005 2.500000016
0x47674cf937deed4b2aadbf3f23368797eea583010682ab21e2c906d55afe73d10x60806040264978322022-05-28 7:27:51191 days 14 hrs ago0xbc4a346abcea636275a82efcca58052a3bdcd812OUT Contract Creation0 MATIC0.000493682502 2.500000013
0xf9a3f9bc1a6785bf36d931f6961cd3ae21c04cc5e4e6596f4af8aa4560fe7d62Transfer263916342022-05-20 12:34:41199 days 9 hrs ago0xbc4a346abcea636275a82efcca58052a3bdcd812OUT 0xf52ba4bc2021f5ddbab3d8db748f24c42da4146c0 MATIC0.0001309225 2.500000011
0x750d3996544227a65c89341c08115df981bdb027fc55e94eb366ca1e80cf8200Transfer263915092022-05-20 12:20:44199 days 9 hrs ago0xbc4a346abcea636275a82efcca58052a3bdcd812OUT 0xf52ba4bc2021f5ddbab3d8db748f24c42da4146c0 MATIC0.0000881725 2.500000022
0x0ca65dbca866ad85e34d99a58eb3f117ed93c3402cb60c28fd5d09b0a7427f59Transfer263912682022-05-20 11:56:23199 days 10 hrs ago0xbc4a346abcea636275a82efcca58052a3bdcd812OUT 0xf52ba4bc2021f5ddbab3d8db748f24c42da4146c0 MATIC0.0001309225 2.500000011
0x3365c63f098da37eeae393a434c6b027a851307affde70d4d074123ddb8f9b05Propose263908822022-05-20 11:15:27199 days 10 hrs ago0xbc4a346abcea636275a82efcca58052a3bdcd812OUT 0x1ab0ef16b0f4d8cbe2b7ab4f3f3436aeacd57b190 MATIC0.000635442503 2.500000014
0xfb873147cbe8491b6c9955d299bb98df624bd8135ca584f8147bfae941a37bb4Approve263908742022-05-20 11:14:47199 days 10 hrs ago0xbc4a346abcea636275a82efcca58052a3bdcd812OUT 0xf52ba4bc2021f5ddbab3d8db748f24c42da4146c0 MATIC0.000117175 2.500000014
0xdb77637913417a54bc9af518c358de91610864f3fb082179cb594f0137ef4b31Set Lender Token263908642022-05-20 11:13:57199 days 10 hrs ago0xbc4a346abcea636275a82efcca58052a3bdcd812OUT 0x1ab0ef16b0f4d8cbe2b7ab4f3f3436aeacd57b190 MATIC0.000172852501 2.500000016
0x3b7b6c543d4f35202ccf91cd941a6bec725871daec201e6776b25cf905cfaadd0x60806040263908572022-05-20 11:13:22199 days 10 hrs ago0xbc4a346abcea636275a82efcca58052a3bdcd812OUT Contract Creation0 MATIC0.001742475013 2.500000019
0x9d112801fad3886e586c8a00bd7c6a46d5cfabb2e41743a969230c7b5cc782510x60806040263908352022-05-20 11:10:31199 days 11 hrs ago0xbc4a346abcea636275a82efcca58052a3bdcd812OUT Create: USDC0 MATIC0.003064845026 2.500000022
0x9bb34ede91a8f900adf78233ccc0b97d00b505c8e77e8a54c37e431b455fb2f10x60806040263908112022-05-20 11:06:31199 days 11 hrs ago0xbc4a346abcea636275a82efcca58052a3bdcd812OUT Create: Exchange0 MATIC0.006685815037 2.500000014
0x63c933ad9e63bf879e761a6509a0241d9641c059dd2bca6002e1c82a0b60c7afPropose263823382022-05-19 20:36:00200 days 1 hr ago0xbc4a346abcea636275a82efcca58052a3bdcd812OUT 0x8b8ed22abbb3df2b0e763858043bda19ca6ba93c0 MATIC0.000426732118 1.940000083
0x55d0ece50f45bac1cb84beff2acc266c5dc93abccc09f8bba79541b89557ac44Approve263823332022-05-19 20:35:19200 days 1 hr ago0xbc4a346abcea636275a82efcca58052a3bdcd812OUT 0x21c41979d09d5c3ea855ec52eee0ff8abe9408f10 MATIC0.000090916163 1.940000083
0x1cae37a30cca321518fb884852b6494345965e4de1aba0db422bd965946860f5Set Lender Token263823202022-05-19 20:34:14200 days 1 hr ago0xbc4a346abcea636275a82efcca58052a3bdcd812OUT 0x8b8ed22abbb3df2b0e763858043bda19ca6ba93c0 MATIC0.000062353542 1.940000072
0x0d5bd3190fc31667a7c53b59329c86cdbcbc489c5bf3d12407c9c6157abffcc20x60806040263822472022-05-19 20:26:08200 days 1 hr ago0xbc4a346abcea636275a82efcca58052a3bdcd812OUT Create: USDC0 MATIC0.003062042526 2.500000022
0x67eaaf96ef6387f6f7d325fe6cf817d32f7a866304ea601ac10196e8171d803eSet Lender Token263820502022-05-19 20:05:40200 days 2 hrs ago0xbc4a346abcea636275a82efcca58052a3bdcd812OUT 0x8b8ed22abbb3df2b0e763858043bda19ca6ba93c0 MATIC0.000058682 2.000000013
0xa9ce261aefe612050a0ce4f8017859767ce9ddca61eb8572e2fb97c10ed30d24Transfer263819652022-05-19 19:54:24200 days 2 hrs ago0xbc4a346abcea636275a82efcca58052a3bdcd812OUT 0x59c68795c6694d2bf867095bdb1da103aacb86b20 MATIC0.0001309075 2.500000014
0x35c20f87a247275f0bf845a9bb6f97fc1af7c0f044422b9a6880d1617492d687Set Lender Token263819552022-05-19 19:52:44200 days 2 hrs ago0xbc4a346abcea636275a82efcca58052a3bdcd812OUT 0x8b8ed22abbb3df2b0e763858043bda19ca6ba93c0 MATIC0.008647836229 247.498246457
0xd83112b1b2b75f8b0de528399892924a0aa0981e3467c64f6dfb497a78d4beab0x60806040263819552022-05-19 19:52:44200 days 2 hrs ago0xbc4a346abcea636275a82efcca58052a3bdcd812OUT Contract Creation0 MATIC0.109618691317 157.330165236
0xfce23e015359c3d4cc8bce615ec27c762d9d2e05448b504b30af0c656ff1e0240x60806040263818822022-05-19 19:45:58200 days 2 hrs ago0xbc4a346abcea636275a82efcca58052a3bdcd812OUT Contract Creation0 MATIC0.003062042513 2.500000011
[ Download CSV Export 
Latest 3 internal transactions
Parent Txn Hash Block From To Value
0xc7093da8e4a1d540b66b0d1b3cb4074272fa7780bcf607c710fd7aceafce0f83256053432022-03-21 12:58:14259 days 9 hrs ago 0x7f092e65c688a509737fcd8d0998dd12208f52970xbc4a346abcea636275a82efcca58052a3bdcd8120.5 MATIC
0x2d6449b9b4ab6c9b1c562fb602603bc0151d6e688ce9b1ff184c9a08967b184c251647442022-02-21 18:46:03287 days 3 hrs ago 0x7f092e65c688a509737fcd8d0998dd12208f52970xbc4a346abcea636275a82efcca58052a3bdcd8120.5 MATIC
0x3e88f233ecf1628fe5900cddb0f9b383d9f2bddc81c63f95463647dff6664547231876362021-12-27 10:43:12343 days 11 hrs ago 0x7f092e65c688a509737fcd8d0998dd12208f52970xbc4a346abcea636275a82efcca58052a3bdcd8120.5 MATIC
[ Download CSV Export 
Loading

Contract Name:
0 MATIC

Compiler Version
0

Optimization Enabled:
0 MATIC

Other Settings:
-NA-
Block Transaction Gas Used Reward
Age Block Fee Address BC Fee Address Voting Power Jailed Incoming
Block Uncle Number Difficulty Gas Used Reward
Loading